Language: 


Des rapports , des résumés tant et plus, au choix de chacun....


Données Historiques de Météogheer
Journalier Rapport pour Février 23, 2018 Unitée:  Les deux    Impériale   Métrique
Suivant Jour »
Journalier Hebdomadaire Mensuel Annuel Sur mesure
  Max: Min: Moyenne:
Température: 40.6 °F /  4.8 °C 28.4 °F /  -2.0 °C 33.6 °F /  0.9 °C
Point de rosée: 26.6 °F /  -3.0 °C 17.6 °F /  -8.0 °C 21.7 °F /  -5.7 °C
Humidité: 80% 45% 63%
Vent: 17.2mph /  27.7km/h - 7.6mph /  12.2km/h
Rafales: 18.6mph /  29.9km/h - -
Vent- - ENE
Pression: 30.2 in /  1020.9 hPa 30 in /  1016.8 hPa -
Pluie: 0 in /  0.0 mm    
Historical Graphs
 
 
Données tabulaires pour Février 23, 2018
Heure Température Point de rosée Pression Vent Vent Rafales Humidité Pluie Taux (Horaire) Conditions
00:01 32.9 °F /  0.5 °C 24.8 °F /  -4.0 °C 30.2in /  1020.9hPa ENE 6.5mph /  10.5km/h 12.5mph /  20.1km/h 69% 0in /  0.0mm
00:06 32.9 °F /  0.5 °C 24.8 °F /  -4.0 °C 30.2in /  1020.9hPa ENE 7.2mph /  11.6km/h 12.5mph /  20.1km/h 69% 0in /  0.0mm
00:11 32.9 °F /  0.5 °C 24.8 °F /  -4.0 °C 30.2in /  1020.9hPa ENE 8.1mph /  13.0km/h 13mph /  20.9km/h 69% 0in /  0.0mm
00:16 32.7 °F /  0.4 °C 23 °F /  -5.0 °C 30.2in /  1020.9hPa ENE 7.4mph /  11.9km/h 13mph /  20.9km/h 69% 0in /  0.0mm
00:21 32.5 °F /  0.3 °C 23 °F /  -5.0 °C 30.2in /  1020.9hPa NE 5.6mph /  9.0km/h 8.1mph /  13.0km/h 69% 0in /  0.0mm
00:26 32.5 °F /  0.3 °C 24.8 °F /  -4.0 °C 30.2in /  1020.9hPa ENE 8.1mph /  13.0km/h 8.5mph /  13.7km/h 70% 0in /  0.0mm
00:31 32.5 °F /  0.3 °C 24.8 °F /  -4.0 °C 30.2in /  1020.9hPa ENE 7.4mph /  11.9km/h 8.5mph /  13.7km/h 70% 0in /  0.0mm
00:36 32.4 °F /  0.2 °C 23 °F /  -5.0 °C 30.2in /  1020.9hPa ENE 5.8mph /  9.3km/h 10.3mph /  16.6km/h 70% 0in /  0.0mm
00:41 32.2 °F /  0.1 °C 23 °F /  -5.0 °C 30.2in /  1020.9hPa NNE 6mph /  9.7km/h 10.3mph /  16.6km/h 70% 0in /  0.0mm
00:46 32.2 °F /  0.1 °C 24.8 °F /  -4.0 °C 30.2in /  1020.9hPa East 5.8mph /  9.3km/h 9.8mph /  15.8km/h 71% 0in /  0.0mm
00:51 32.2 °F /  0.1 °C 24.8 °F /  -4.0 °C 30.2in /  1020.9hPa ENE 7.8mph /  12.6km/h 9.8mph /  15.8km/h 71% 0in /  0.0mm
00:56 32.2 °F /  0.1 °C 24.8 °F /  -4.0 °C 30.2in /  1020.9hPa NE 5.6mph /  9.0km/h 10.5mph /  16.9km/h 71% 0in /  0.0mm
01:01 32.2 °F /  0.1 °C 24.8 °F /  -4.0 °C 30.1in /  1019.9hPa ENE 5.4mph /  8.7km/h 10.5mph /  16.9km/h 71% 0in /  0.0mm
01:06 32 °F /  0.0 °C 23 °F /  -5.0 °C 30.1in /  1019.9hPa NE 5.6mph /  9.0km/h 8.7mph /  14.0km/h 71% 0in /  0.0mm
01:11 31.8 °F /  -0.1 °C 23 °F /  -5.0 °C 30.1in /  1019.9hPa ENE 6.3mph /  10.1km/h 8.7mph /  14.0km/h 71% 0in /  0.0mm
01:16 31.8 °F /  -0.1 °C 23 °F /  -5.0 °C 30.1in /  1019.9hPa NE 5.4mph /  8.7km/h 8.1mph /  13.0km/h 71% 0in /  0.0mm
01:21 31.5 °F /  -0.3 °C 23 °F /  -5.0 °C 30.1in /  1019.9hPa ENE 3.6mph /  5.8km/h 7.6mph /  12.2km/h 72% 0in /  0.0mm
01:26 31.5 °F /  -0.3 °C 23 °F /  -5.0 °C 30.1in /  1019.9hPa ENE 7.6mph /  12.2km/h 8.5mph /  13.7km/h 72% 0in /  0.0mm
01:31 31.5 °F /  -0.3 °C 23 °F /  -5.0 °C 30.1in /  1019.9hPa ENE 4mph /  6.4km/h 8.5mph /  13.7km/h 72% 0in /  0.0mm
01:36 31.3 °F /  -0.4 °C 23 °F /  -5.0 °C 30.1in /  1019.9hPa NE 5.4mph /  8.7km/h 8.1mph /  13.0km/h 72% 0in /  0.0mm
01:42 31.1 °F /  -0.5 °C 21.2 °F /  -6.0 °C 30.1in /  1019.9hPa NE 3.8mph /  6.1km/h 7.6mph /  12.2km/h 73% 0in /  0.0mm
01:47 31.1 °F /  -0.5 °C 21.2 °F /  -6.0 °C 30.1in /  1019.9hPa NNE 6.5mph /  10.5km/h 9.2mph /  14.8km/h 73% 0in /  0.0mm
01:52 31.1 °F /  -0.5 °C 21.2 °F /  -6.0 °C 30.1in /  1019.9hPa NE 6mph /  9.7km/h 9.2mph /  14.8km/h 73% 0in /  0.0mm
01:57 31.1 °F /  -0.5 °C 21.2 °F /  -6.0 °C 30.1in /  1019.9hPa NE 7.4mph /  11.9km/h 8.7mph /  14.0km/h 73% 0in /  0.0mm
02:02 31.1 °F /  -0.5 °C 21.2 °F /  -6.0 °C 30.1in /  1019.9hPa NNE 7.4mph /  11.9km/h 8.9mph /  14.3km/h 73% 0in /  0.0mm
02:07 31.1 °F /  -0.5 °C 23 °F /  -5.0 °C 30.1in /  1019.9hPa NE 7.2mph /  11.6km/h 8.9mph /  14.3km/h 74% 0in /  0.0mm
02:12 31.1 °F /  -0.5 °C 23 °F /  -5.0 °C 30.1in /  1019.9hPa NNE 6mph /  9.7km/h 10.5mph /  16.9km/h 74% 0in /  0.0mm
02:17 30.7 °F /  -0.7 °C 21.2 °F /  -6.0 °C 30.1in /  1019.9hPa NNE 5.4mph /  8.7km/h 10.5mph /  16.9km/h 73% 0in /  0.0mm
02:22 30.6 °F /  -0.8 °C 21.2 °F /  -6.0 °C 30.1in /  1019.9hPa NNE 5.6mph /  9.0km/h 6.5mph /  10.5km/h 73% 0in /  0.0mm
02:27 30.4 °F /  -0.9 °C 21.2 °F /  -6.0 °C 30.1in /  1019.9hPa NE 7.4mph /  11.9km/h 7.4mph /  11.9km/h 74% 0in /  0.0mm
02:32 30.4 °F /  -0.9 °C 21.2 °F /  -6.0 °C 30.1in /  1019.9hPa NE 6.5mph /  10.5km/h 7.4mph /  11.9km/h 74% 0in /  0.0mm
02:37 30.2 °F /  -1.0 °C 23 °F /  -5.0 °C 30.1in /  1019.9hPa NE 4.9mph /  7.9km/h 7.6mph /  12.2km/h 75% 0in /  0.0mm
02:42 30.2 °F /  -1.0 °C 23 °F /  -5.0 °C 30.1in /  1019.9hPa NE 7.4mph /  11.9km/h 8.7mph /  14.0km/h 75% 0in /  0.0mm
02:47 30.2 °F /  -1.0 °C 23 °F /  -5.0 °C 30.1in /  1019.9hPa NNE 8.1mph /  13.0km/h 11.2mph /  18.0km/h 76% 0in /  0.0mm
02:52 30.4 °F /  -0.9 °C 23 °F /  -5.0 °C 30.1in /  1019.9hPa NE 7.6mph /  12.2km/h 11.2mph /  18.0km/h 75% 0in /  0.0mm
02:57 30.2 °F /  -1.0 °C 23 °F /  -5.0 °C 30.1in /  1019.9hPa NE 7.6mph /  12.2km/h 9.4mph /  15.1km/h 76% 0in /  0.0mm
03:02 30.2 °F /  -1.0 °C 23 °F /  -5.0 °C 30.1in /  1018.8hPa NE 8.5mph /  13.7km/h 9.4mph /  15.1km/h 75% 0in /  0.0mm
03:07 30 °F /  -1.1 °C 23 °F /  -5.0 °C 30.1in /  1018.8hPa NE 6mph /  9.7km/h 8.5mph /  13.7km/h 75% 0in /  0.0mm
03:12 29.8 °F /  -1.2 °C 21.2 °F /  -6.0 °C 30.1in /  1018.8hPa NNE 6.7mph /  10.8km/h 8.5mph /  13.7km/h 75% 0in /  0.0mm
03:17 29.8 °F /  -1.2 °C 21.2 °F /  -6.0 °C 30.1in /  1018.8hPa ENE 6.3mph /  10.1km/h 8.5mph /  13.7km/h 76% 0in /  0.0mm
03:22 29.8 °F /  -1.2 °C 21.2 °F /  -6.0 °C 30.1in /  1018.8hPa North 6mph /  9.7km/h 8.5mph /  13.7km/h 76% 0in /  0.0mm
03:27 29.7 °F /  -1.3 °C 21.2 °F /  -6.0 °C 30.1in /  1018.8hPa NNE 5.6mph /  9.0km/h 8.7mph /  14.0km/h 76% 0in /  0.0mm
03:32 29.7 °F /  -1.3 °C 21.2 °F /  -6.0 °C 30.1in /  1018.8hPa NNE 7.8mph /  12.6km/h 8.7mph /  14.0km/h 76% 0in /  0.0mm
03:37 29.5 °F /  -1.4 °C 21.2 °F /  -6.0 °C 30.1in /  1018.8hPa NNE 4mph /  6.4km/h 8.7mph /  14.0km/h 76% 0in /  0.0mm
03:42 29.5 °F /  -1.4 °C 21.2 °F /  -6.0 °C 30.1in /  1018.8hPa NE 7.6mph /  12.2km/h 8.5mph /  13.7km/h 76% 0in /  0.0mm
03:47 29.5 °F /  -1.4 °C 23 °F /  -5.0 °C 30.1in /  1018.2hPa NE 11mph /  17.7km/h 11mph /  17.7km/h 77% 0in /  0.0mm
03:53 29.7 °F /  -1.3 °C 21.2 °F /  -6.0 °C 30.1in /  1018.2hPa ENE 7.4mph /  11.9km/h 12.1mph /  19.5km/h 76% 0in /  0.0mm
03:58 29.7 °F /  -1.3 °C 21.2 °F /  -6.0 °C 30.1in /  1018.2hPa NE 7.6mph /  12.2km/h 12.1mph /  19.5km/h 76% 0in /  0.0mm
04:03 29.7 °F /  -1.3 °C 21.2 °F /  -6.0 °C 30.1in /  1018.8hPa NNE 7.4mph /  11.9km/h 9.6mph /  15.4km/h 76% 0in /  0.0mm
04:08 29.8 °F /  -1.2 °C 21.2 °F /  -6.0 °C 30.1in /  1018.8hPa NE 7.6mph /  12.2km/h 9.6mph /  15.4km/h 75% 0in /  0.0mm
04:13 29.8 °F /  -1.2 °C 21.2 °F /  -6.0 °C 30.1in /  1018.8hPa ENE 8.1mph /  13.0km/h 9.2mph /  14.8km/h 75% 0in /  0.0mm
04:18 29.8 °F /  -1.2 °C 21.2 °F /  -6.0 °C 30.1in /  1018.8hPa ENE 8.5mph /  13.7km/h 9.8mph /  15.8km/h 75% 0in /  0.0mm
04:23 29.8 °F /  -1.2 °C 21.2 °F /  -6.0 °C 30.1in /  1018.8hPa NE 7.4mph /  11.9km/h 9.8mph /  15.8km/h 75% 0in /  0.0mm
04:28 29.7 °F /  -1.3 °C 21.2 °F /  -6.0 °C 30.1in /  1018.8hPa East 5.8mph /  9.3km/h 8.7mph /  14.0km/h 75% 0in /  0.0mm
04:33 29.7 °F /  -1.3 °C 21.2 °F /  -6.0 °C 30.1in /  1018.8hPa NE 7.2mph /  11.6km/h 8.7mph /  14.0km/h 75% 0in /  0.0mm
04:38 29.7 °F /  -1.3 °C 21.2 °F /  -6.0 °C 30.1in /  1018.8hPa NE 6.5mph /  10.5km/h 8.7mph /  14.0km/h 75% 0in /  0.0mm
04:43 29.5 °F /  -1.4 °C 21.2 °F /  -6.0 °C 30.1in /  1018.8hPa NNE 6.5mph /  10.5km/h 8.7mph /  14.0km/h 75% 0in /  0.0mm
04:48 29.5 °F /  -1.4 °C 21.2 °F /  -6.0 °C 30.1in /  1018.8hPa ENE 4.7mph /  7.6km/h 8.7mph /  14.0km/h 75% 0in /  0.0mm
04:53 29.5 °F /  -1.4 °C 21.2 °F /  -6.0 °C 30.1in /  1018.8hPa ENE 7.8mph /  12.6km/h 8.7mph /  14.0km/h 75% 0in /  0.0mm
04:58 29.5 °F /  -1.4 °C 21.2 °F /  -6.0 °C 30.1in /  1018.8hPa NE 5.6mph /  9.0km/h 8.1mph /  13.0km/h 75% 0in /  0.0mm
05:03 29.5 °F /  -1.4 °C 21.2 °F /  -6.0 °C 30.1in /  1018.8hPa ENE 7.2mph /  11.6km/h 8.1mph /  13.0km/h 75% 0in /  0.0mm
05:08 29.5 °F /  -1.4 °C 21.2 °F /  -6.0 °C 30.1in /  1018.8hPa NE 8.5mph /  13.7km/h 9.8mph /  15.8km/h 75% 0in /  0.0mm
05:13 29.3 °F /  -1.5 °C 21.2 °F /  -6.0 °C 30.1in /  1018.8hPa NE 7.8mph /  12.6km/h 9.8mph /  15.8km/h 75% 0in /  0.0mm
05:18 29.3 °F /  -1.5 °C 21.2 °F /  -6.0 °C 30.1in /  1018.2hPa East 7.6mph /  12.2km/h 8.1mph /  13.0km/h 75% 0in /  0.0mm
05:23 29.3 °F /  -1.5 °C 21.2 °F /  -6.0 °C 30.1in /  1018.2hPa ENE 4.9mph /  7.9km/h 7.8mph /  12.6km/h 75% 0in /  0.0mm
05:28 29.3 °F /  -1.5 °C 21.2 °F /  -6.0 °C 30.1in /  1018.2hPa ENE 5.6mph /  9.0km/h 8.5mph /  13.7km/h 75% 0in /  0.0mm
05:33 29.1 °F /  -1.6 °C 21.2 °F /  -6.0 °C 30.1in /  1018.8hPa ENE 8.5mph /  13.7km/h 8.5mph /  13.7km/h 75% 0in /  0.0mm
05:38 29.1 °F /  -1.6 °C 21.2 °F /  -6.0 °C 30.1in /  1018.8hPa NE 5.4mph /  8.7km/h 8.5mph /  13.7km/h 75% 0in /  0.0mm
05:43 29.1 °F /  -1.6 °C 21.2 °F /  -6.0 °C 30.1in /  1018.8hPa ENE 5.4mph /  8.7km/h 8.5mph /  13.7km/h 76% 0in /  0.0mm
05:48 28.9 °F /  -1.7 °C 21.2 °F /  -6.0 °C 30.1in /  1018.2hPa ENE 5.6mph /  9.0km/h 7.8mph /  12.6km/h 76% 0in /  0.0mm
05:53 28.9 °F /  -1.7 °C 21.2 °F /  -6.0 °C 30.1in /  1018.2hPa NE 6mph /  9.7km/h 7.4mph /  11.9km/h 76% 0in /  0.0mm
05:58 28.9 °F /  -1.7 °C 21.2 °F /  -6.0 °C 30.1in /  1018.2hPa ENE 5.4mph /  8.7km/h 7.6mph /  12.2km/h 76% 0in /  0.0mm
06:03 28.9 °F /  -1.7 °C 21.2 °F /  -6.0 °C 30.1in /  1018.2hPa NE 6.5mph /  10.5km/h 7.6mph /  12.2km/h 76% 0in /  0.0mm
06:09 28.9 °F /  -1.7 °C 21.2 °F /  -6.0 °C 30.1in /  1018.2hPa ENE 5.8mph /  9.3km/h 8.7mph /  14.0km/h 76% 0in /  0.0mm
06:14 28.9 °F /  -1.7 °C 21.2 °F /  -6.0 °C 30.1in /  1018.2hPa NE 8.1mph /  13.0km/h 8.7mph /  14.0km/h 76% 0in /  0.0mm
06:19 28.9 °F /  -1.7 °C 21.2 °F /  -6.0 °C 30.1in /  1018.8hPa ENE 6.3mph /  10.1km/h 10.5mph /  16.9km/h 76% 0in /  0.0mm
06:24 28.9 °F /  -1.7 °C 21.2 °F /  -6.0 °C 30.1in /  1018.8hPa ENE 4mph /  6.4km/h 10.5mph /  16.9km/h 76% 0in /  0.0mm
06:29 29.1 °F /  -1.6 °C 21.2 °F /  -6.0 °C 30.1in /  1018.8hPa NE 9.4mph /  15.1km/h 9.8mph /  15.8km/h 76% 0in /  0.0mm
06:34 29.1 °F /  -1.6 °C 21.2 °F /  -6.0 °C 30.1in /  1018.8hPa East 8.5mph /  13.7km/h 9.8mph /  15.8km/h 75% 0in /  0.0mm
06:39 29.1 °F /  -1.6 °C 21.2 °F /  -6.0 °C 30.1in /  1018.8hPa NNE 5.6mph /  9.0km/h 9.4mph /  15.1km/h 75% 0in /  0.0mm
06:44 28.9 °F /  -1.7 °C 21.2 °F /  -6.0 °C 30.1in /  1018.8hPa ENE 6.3mph /  10.1km/h 8.7mph /  14.0km/h 75% 0in /  0.0mm
06:49 28.9 °F /  -1.7 °C 21.2 °F /  -6.0 °C 30.1in /  1018.8hPa NE 5.6mph /  9.0km/h 8.7mph /  14.0km/h 75% 0in /  0.0mm
06:54 28.9 °F /  -1.7 °C 21.2 °F /  -6.0 °C 30.1in /  1018.8hPa ESE 6.3mph /  10.1km/h 8.5mph /  13.7km/h 75% 0in /  0.0mm
06:59 28.8 °F /  -1.8 °C 21.2 °F /  -6.0 °C 30.1in /  1018.2hPa ENE 3.1mph /  5.0km/h 8.5mph /  13.7km/h 75% 0in /  0.0mm
07:04 28.8 °F /  -1.8 °C 21.2 °F /  -6.0 °C 30.1in /  1018.2hPa ENE 4mph /  6.4km/h 8.5mph /  13.7km/h 75% 0in /  0.0mm
07:09 28.8 °F /  -1.8 °C 21.2 °F /  -6.0 °C 30.1in /  1018.2hPa ENE 5.4mph /  8.7km/h 7.6mph /  12.2km/h 75% 0in /  0.0mm
07:14 28.6 °F /  -1.9 °C 21.2 °F /  -6.0 °C 30.1in /  1018.2hPa East 5.8mph /  9.3km/h 7.6mph /  12.2km/h 75% 0in /  0.0mm
07:19 28.6 °F /  -1.9 °C 21.2 °F /  -6.0 °C 30.1in /  1018.2hPa ENE 1.6mph /  2.6km/h 6.3mph /  10.1km/h 75% 0in /  0.0mm
07:24 28.6 °F /  -1.9 °C 21.2 °F /  -6.0 °C 30.1in /  1018.2hPa Calm   6.5mph /  10.5km/h 75% 0in /  0.0mm
07:29 28.4 °F /  -2.0 °C 21.2 °F /  -6.0 °C 30.1in /  1018.8hPa East 4.3mph /  6.9km/h 7.4mph /  11.9km/h 76% 0in /  0.0mm
07:34 28.4 °F /  -2.0 °C 21.2 °F /  -6.0 °C 30.1in /  1018.8hPa NNE 4.9mph /  7.9km/h 7.4mph /  11.9km/h 76% 0in /  0.0mm
07:39 28.6 °F /  -1.9 °C 21.2 °F /  -6.0 °C 30.1in /  1018.8hPa NNE 6mph /  9.7km/h 10.5mph /  16.9km/h 77% 0in /  0.0mm
07:44 28.6 °F /  -1.9 °C 21.2 °F /  -6.0 °C 30.1in /  1018.8hPa NNE 8.1mph /  13.0km/h 10.5mph /  16.9km/h 77% 0in /  0.0mm
07:49 28.6 °F /  -1.9 °C 21.2 °F /  -6.0 °C 30.1in /  1018.8hPa NE 6mph /  9.7km/h 8.1mph /  13.0km/h 77% 0in /  0.0mm
07:54 28.6 °F /  -1.9 °C 21.2 °F /  -6.0 °C 30.1in /  1018.8hPa ENE 7.6mph /  12.2km/h 8.5mph /  13.7km/h 78% 0in /  0.0mm
08:00 28.6 °F /  -1.9 °C 21.2 °F /  -6.0 °C 30.1in /  1018.8hPa NE 5.6mph /  9.0km/h 8.5mph /  13.7km/h 78% 0in /  0.0mm
08:05 28.6 °F /  -1.9 °C 21.2 °F /  -6.0 °C 30.1in /  1018.8hPa ENE 7.8mph /  12.6km/h 7.8mph /  12.6km/h 78% 0in /  0.0mm
08:10 28.8 °F /  -1.8 °C 21.2 °F /  -6.0 °C 30.1in /  1018.8hPa ENE 4.9mph /  7.9km/h 7.8mph /  12.6km/h 78% 0in /  0.0mm
08:15 28.9 °F /  -1.7 °C 23 °F /  -5.0 °C 30.1in /  1018.8hPa NE 5.8mph /  9.3km/h 8.7mph /  14.0km/h 79% 0in /  0.0mm
08:20 29.1 °F /  -1.6 °C 23 °F /  -5.0 °C 30.1in /  1018.8hPa ENE 5.8mph /  9.3km/h 8.7mph /  14.0km/h 79% 0in /  0.0mm
08:25 29.3 °F /  -1.5 °C 23 °F /  -5.0 °C 30.1in /  1018.8hPa ENE 7.6mph /  12.2km/h 8.1mph /  13.0km/h 79% 0in /  0.0mm
08:30 29.5 °F /  -1.4 °C 23 °F /  -5.0 °C 30.1in /  1019.9hPa NNE 4.9mph /  7.9km/h 7.6mph /  12.2km/h 79% 0in /  0.0mm
08:35 29.7 °F /  -1.3 °C 23 °F /  -5.0 °C 30.1in /  1019.9hPa NE 6.9mph /  11.1km/h 8.5mph /  13.7km/h 79% 0in /  0.0mm
08:40 30 °F /  -1.1 °C 23 °F /  -5.0 °C 30.1in /  1019.9hPa ENE 7.8mph /  12.6km/h 9.4mph /  15.1km/h 80% 0in /  0.0mm
08:45 30.2 °F /  -1.0 °C 23 °F /  -5.0 °C 30.1in /  1019.9hPa NE 4.9mph /  7.9km/h 10.1mph /  16.3km/h 79% 0in /  0.0mm
08:50 30.4 °F /  -0.9 °C 23 °F /  -5.0 °C 30.1in /  1019.9hPa NNE 4.7mph /  7.6km/h 10.1mph /  16.3km/h 79% 0in /  0.0mm
08:55 30.7 °F /  -0.7 °C 23 °F /  -5.0 °C 30.1in /  1019.9hPa ENE 5.6mph /  9.0km/h 12.5mph /  20.1km/h 79% 0in /  0.0mm
09:00 30.9 °F /  -0.6 °C 23 °F /  -5.0 °C 30.1in /  1019.9hPa ENE 8.1mph /  13.0km/h 12.5mph /  20.1km/h 78% 0in /  0.0mm
09:06 31.1 °F /  -0.5 °C 23 °F /  -5.0 °C 30.1in /  1019.9hPa ENE 10.1mph /  16.3km/h 13mph /  20.9km/h 78% 0in /  0.0mm
09:11 31.5 °F /  -0.3 °C 23 °F /  -5.0 °C 30.1in /  1019.9hPa NE 9.8mph /  15.8km/h 13.4mph /  21.6km/h 78% 0in /  0.0mm
09:16 31.6 °F /  -0.2 °C 24.8 °F /  -4.0 °C 30.2in /  1020.9hPa NE 7.6mph /  12.2km/h 13.4mph /  21.6km/h 77% 0in /  0.0mm
09:21 31.8 °F /  -0.1 °C 24.8 °F /  -4.0 °C 30.2in /  1020.9hPa NE 7.4mph /  11.9km/h 11mph /  17.7km/h 77% 0in /  0.0mm
09:26 32 °F /  0.0 °C 24.8 °F /  -4.0 °C 30.2in /  1020.9hPa ENE 7.8mph /  12.6km/h 10.5mph /  16.9km/h 77% 0in /  0.0mm
09:31 32.2 °F /  0.1 °C 26.6 °F /  -3.0 °C 30.2in /  1020.9hPa ENE 8.5mph /  13.7km/h 10.5mph /  16.9km/h 76% 0in /  0.0mm
09:36 32.5 °F /  0.3 °C 26.6 °F /  -3.0 °C 30.2in /  1020.9hPa ENE 5.6mph /  9.0km/h 12.3mph /  19.8km/h 76% 0in /  0.0mm
09:41 32.5 °F /  0.3 °C 26.6 °F /  -3.0 °C 30.2in /  1020.9hPa East 7.8mph /  12.6km/h 12.3mph /  19.8km/h 75% 0in /  0.0mm
09:46 32.7 °F /  0.4 °C 26.6 °F /  -3.0 °C 30.2in /  1020.9hPa ENE 8.5mph /  13.7km/h 11mph /  17.7km/h 74% 0in /  0.0mm
09:51 32.7 °F /  0.4 °C 26.6 °F /  -3.0 °C 30.2in /  1020.9hPa ENE 12.8mph /  20.6km/h 13.6mph /  21.9km/h 74% 0in /  0.0mm
09:56 32.9 °F /  0.5 °C 26.6 °F /  -3.0 °C 30.2in /  1020.9hPa ENE 10.3mph /  16.6km/h 13.6mph /  21.9km/h 73% 0in /  0.0mm
10:01 33.1 °F /  0.6 °C 26.6 °F /  -3.0 °C 30.2in /  1020.9hPa NE 8.7mph /  14.0km/h 13mph /  20.9km/h 73% 0in /  0.0mm
10:06 33.4 °F /  0.8 °C 26.6 °F /  -3.0 °C 30.2in /  1020.9hPa ENE 8.7mph /  14.0km/h 11mph /  17.7km/h 72% 0in /  0.0mm
10:11 33.6 °F /  0.9 °C 26.6 °F /  -3.0 °C 30.2in /  1020.9hPa ENE 8.7mph /  14.0km/h 11.9mph /  19.1km/h 71% 0in /  0.0mm
10:17 33.6 °F /  0.9 °C 24.8 °F /  -4.0 °C 30.1in /  1019.9hPa ENE 6mph /  9.7km/h 11.9mph /  19.1km/h 70% 0in /  0.0mm
10:21 34 °F /  1.1 °C 24.8 °F /  -4.0 °C 30.1in /  1019.9hPa ENE 8.1mph /  13.0km/h 11mph /  17.7km/h 70% 0in /  0.0mm
10:27 34.2 °F /  1.2 °C 24.8 °F /  -4.0 °C 30.1in /  1019.9hPa East 8.1mph /  13.0km/h 12.3mph /  19.8km/h 68% 0in /  0.0mm
10:32 34.3 °F /  1.3 °C 24.8 °F /  -4.0 °C 30.1in /  1019.9hPa NNE 9.8mph /  15.8km/h 12.3mph /  19.8km/h 66% 0in /  0.0mm
10:37 34.5 °F /  1.4 °C 24.8 °F /  -4.0 °C 30.1in /  1019.9hPa East 8.7mph /  14.0km/h 11.9mph /  19.1km/h 65% 0in /  0.0mm
10:42 34.9 °F /  1.6 °C 24.8 °F /  -4.0 °C 30.1in /  1019.9hPa ENE 10.5mph /  16.9km/h 12.8mph /  20.6km/h 66% 0in /  0.0mm
10:47 34.9 °F /  1.6 °C 24.8 °F /  -4.0 °C 30.1in /  1019.9hPa ENE 10.3mph /  16.6km/h 13mph /  20.9km/h 64% 0in /  0.0mm
10:52 35.1 °F /  1.7 °C 23 °F /  -5.0 °C 30.1in /  1019.9hPa ENE 8.5mph /  13.7km/h 14.5mph /  23.3km/h 63% 0in /  0.0mm
10:57 35.1 °F /  1.7 °C 23 °F /  -5.0 °C 30.1in /  1019.9hPa ENE 7.6mph /  12.2km/h 14.5mph /  23.3km/h 62% 0in /  0.0mm
11:02 35.4 °F /  1.9 °C 23 °F /  -5.0 °C 30.1in /  1019.9hPa ENE 7.8mph /  12.6km/h 15.9mph /  25.6km/h 62% 0in /  0.0mm
11:07 35.8 °F /  2.1 °C 24.8 °F /  -4.0 °C 30.1in /  1019.9hPa ENE 6.9mph /  11.1km/h 15.9mph /  25.6km/h 62% 0in /  0.0mm
11:12 36 °F /  2.2 °C 23 °F /  -5.0 °C 30.1in /  1019.9hPa ENE 10.3mph /  16.6km/h 12.1mph /  19.5km/h 61% 0in /  0.0mm
11:17 36.1 °F /  2.3 °C 24.8 °F /  -4.0 °C 30.1in /  1019.9hPa ENE 10.3mph /  16.6km/h 10.3mph /  16.6km/h 60% 0in /  0.0mm
11:22 36.3 °F /  2.4 °C 23 °F /  -5.0 °C 30.1in /  1019.9hPa ENE 6mph /  9.7km/h 13.2mph /  21.2km/h 59% 0in /  0.0mm
11:27 36.3 °F /  2.4 °C 23 °F /  -5.0 °C 30.1in /  1019.9hPa ESE 6.5mph /  10.5km/h 13.2mph /  21.2km/h 58% 0in /  0.0mm
11:32 36.5 °F /  2.5 °C 23 °F /  -5.0 °C 30.1in /  1018.8hPa ENE 10.7mph /  17.2km/h 14.5mph /  23.3km/h 57% 0in /  0.0mm
11:37 36.7 °F /  2.6 °C 23 °F /  -5.0 °C 30.1in /  1018.8hPa NE 7.4mph /  11.9km/h 14.5mph /  23.3km/h 57% 0in /  0.0mm
11:42 36.9 °F /  2.7 °C 23 °F /  -5.0 °C 30.1in /  1018.8hPa ENE 8.5mph /  13.7km/h 13.2mph /  21.2km/h 56% 0in /  0.0mm
11:47 36.9 °F /  2.7 °C 23 °F /  -5.0 °C 30.1in /  1018.8hPa East 7.8mph /  12.6km/h 12.1mph /  19.5km/h 56% 0in /  0.0mm
11:52 37 °F /  2.8 °C 23 °F /  -5.0 °C 30.1in /  1018.8hPa East 10.1mph /  16.3km/h 12.1mph /  19.5km/h 56% 0in /  0.0mm
11:57 37 °F /  2.8 °C 23 °F /  -5.0 °C 30.1in /  1018.8hPa ESE 11mph /  17.7km/h 13.4mph /  21.6km/h 55% 0in /  0.0mm
12:02 37.2 °F /  2.9 °C 23 °F /  -5.0 °C 30.1in /  1018.8hPa NE 9.8mph /  15.8km/h 13.4mph /  21.6km/h 54% 0in /  0.0mm
12:07 37.4 °F /  3.0 °C 23 °F /  -5.0 °C 30.1in /  1018.8hPa East 8.1mph /  13.0km/h 13mph /  20.9km/h 55% 0in /  0.0mm
12:12 37.6 °F /  3.1 °C 23 °F /  -5.0 °C 30.1in /  1018.8hPa East 9.4mph /  15.1km/h 13mph /  20.9km/h 55% 0in /  0.0mm
12:17 37.8 °F /  3.2 °C 23 °F /  -5.0 °C 30.1in /  1018.8hPa ENE 14.1mph /  22.7km/h 14.1mph /  22.7km/h 54% 0in /  0.0mm
12:22 37.9 °F /  3.3 °C 23 °F /  -5.0 °C 30.1in /  1018.8hPa NE 7.6mph /  12.2km/h 14.1mph /  22.7km/h 54% 0in /  0.0mm
12:27 37.9 °F /  3.3 °C 23 °F /  -5.0 °C 30.1in /  1018.8hPa ENE 10.3mph /  16.6km/h 14.1mph /  22.7km/h 53% 0in /  0.0mm
12:32 38.1 °F /  3.4 °C 23 °F /  -5.0 °C 30.1in /  1018.8hPa East 12.8mph /  20.6km/h 13.2mph /  21.2km/h 53% 0in /  0.0mm
12:37 38.1 °F /  3.4 °C 23 °F /  -5.0 °C 30.1in /  1018.8hPa East 13mph /  20.9km/h 13.2mph /  21.2km/h 53% 0in /  0.0mm
12:42 37.9 °F /  3.3 °C 23 °F /  -5.0 °C 30.1in /  1018.8hPa ESE 10.7mph /  17.2km/h 13.2mph /  21.2km/h 53% 0in /  0.0mm
12:47 38.1 °F /  3.4 °C 23 °F /  -5.0 °C 30.1in /  1018.8hPa ENE 13mph /  20.9km/h 13mph /  20.9km/h 52% 0in /  0.0mm
12:52 38.1 °F /  3.4 °C 23 °F /  -5.0 °C 30.1in /  1018.8hPa East 11mph /  17.7km/h 13.2mph /  21.2km/h 52% 0in /  0.0mm
12:57 38.3 °F /  3.5 °C 23 °F /  -5.0 °C 30.1in /  1018.8hPa East 7.8mph /  12.6km/h 14.5mph /  23.3km/h 53% 0in /  0.0mm
13:02 38.3 °F /  3.5 °C 23 °F /  -5.0 °C 30.1in /  1018.8hPa East 12.5mph /  20.1km/h 14.5mph /  23.3km/h 53% 0in /  0.0mm
13:08 38.5 °F /  3.6 °C 23 °F /  -5.0 °C 30.1in /  1018.8hPa East 7.6mph /  12.2km/h 13.2mph /  21.2km/h 53% 0in /  0.0mm
13:13 38.7 °F /  3.7 °C 23 °F /  -5.0 °C 30.1in /  1018.8hPa ESE 10.7mph /  17.2km/h 14.8mph /  23.8km/h 53% 0in /  0.0mm
13:18 38.5 °F /  3.6 °C 23 °F /  -5.0 °C 30.1in /  1018.8hPa ENE 7.6mph /  12.2km/h 14.8mph /  23.8km/h 52% 0in /  0.0mm
13:23 38.7 °F /  3.7 °C 23 °F /  -5.0 °C 30.1in /  1018.8hPa East 12.3mph /  19.8km/h 14.5mph /  23.3km/h 52% 0in /  0.0mm
13:28 38.7 °F /  3.7 °C 23 °F /  -5.0 °C 30.1in /  1018.8hPa ENE 12.3mph /  19.8km/h 13.9mph /  22.4km/h 52% 0in /  0.0mm
13:33 38.8 °F /  3.8 °C 23 °F /  -5.0 °C 30.1in /  1018.8hPa East 10.3mph /  16.6km/h 12.8mph /  20.6km/h 52% 0in /  0.0mm
13:38 38.8 °F /  3.8 °C 23 °F /  -5.0 °C 30.1in /  1018.8hPa ENE 10.1mph /  16.3km/h 13mph /  20.9km/h 53% 0in /  0.0mm
13:43 39.2 °F /  4.0 °C 23 °F /  -5.0 °C 30.1in /  1018.8hPa East 6.3mph /  10.1km/h 13mph /  20.9km/h 53% 0in /  0.0mm
13:48 39.4 °F /  4.1 °C 23 °F /  -5.0 °C 30.1in /  1018.8hPa East 10.1mph /  16.3km/h 12.8mph /  20.6km/h 53% 0in /  0.0mm
13:53 39.2 °F /  4.0 °C 23 °F /  -5.0 °C 30.1in /  1018.8hPa ENE 10.7mph /  17.2km/h 12.8mph /  20.6km/h 52% 0in /  0.0mm
13:58 39.2 °F /  4.0 °C 23 °F /  -5.0 °C 30.1in /  1018.8hPa ENE 11mph /  17.7km/h 12.3mph /  19.8km/h 52% 0in /  0.0mm
14:03 39.2 °F /  4.0 °C 23 °F /  -5.0 °C 30.1in /  1018.8hPa ENE 6.5mph /  10.5km/h 14.3mph /  23.0km/h 53% 0in /  0.0mm
14:08 39.4 °F /  4.1 °C 23 °F /  -5.0 °C 30.1in /  1018.8hPa NE 6.3mph /  10.1km/h 18.6mph /  29.9km/h 53% 0in /  0.0mm
14:14 39.4 °F /  4.1 °C 23 °F /  -5.0 °C 30.1in /  1018.8hPa ENE 12.3mph /  19.8km/h 18.6mph /  29.9km/h 53% 0in /  0.0mm
14:19 39.4 °F /  4.1 °C 23 °F /  -5.0 °C 30.1in /  1018.8hPa NE 10.5mph /  16.9km/h 14.1mph /  22.7km/h 52% 0in /  0.0mm
14:24 39.4 °F /  4.1 °C 23 °F /  -5.0 °C 30.1in /  1018.8hPa ENE 4.7mph /  7.6km/h 13.2mph /  21.2km/h 52% 0in /  0.0mm
14:29 39.6 °F /  4.2 °C 23 °F /  -5.0 °C 30.1in /  1018.8hPa ENE 9.6mph /  15.4km/h 13mph /  20.9km/h 52% 0in /  0.0mm
14:34 39.7 °F /  4.3 °C 23 °F /  -5.0 °C 30.1in /  1018.8hPa ESE 7.4mph /  11.9km/h 13mph /  20.9km/h 52% 0in /  0.0mm
14:36 39.9 °F /  4.4 °C 23 °F /  -5.0 °C 30.1in /  1018.8hPa NE 8.9mph /  14.3km/h 10.7mph /  17.2km/h 52% 0in /  0.0mm
14:41 39.7 °F /  4.3 °C 23 °F /  -5.0 °C 30.1in /  1018.8hPa ESE 12.3mph /  19.8km/h 17.4mph /  28.0km/h 51% 0in /  0.0mm
14:46 39.7 °F /  4.3 °C 23 °F /  -5.0 °C 30.1in /  1018.2hPa ENE 9.8mph /  15.8km/h 17.4mph /  28.0km/h 51% 0in /  0.0mm
14:51 39.9 °F /  4.4 °C 23 °F /  -5.0 °C 30.1in /  1018.2hPa ENE 8.9mph /  14.3km/h 13.2mph /  21.2km/h 51% 0in /  0.0mm
14:56 39.9 °F /  4.4 °C 23 °F /  -5.0 °C 30.1in /  1018.2hPa East 10.1mph /  16.3km/h 13.2mph /  21.2km/h 50% 0in /  0.0mm
15:01 40.3 °F /  4.6 °C 23 °F /  -5.0 °C 30.1in /  1018.2hPa East 10.3mph /  16.6km/h 13mph /  20.9km/h 51% 0in /  0.0mm
15:06 40.1 °F /  4.5 °C 23 °F /  -5.0 °C 30.1in /  1018.2hPa East 8.7mph /  14.0km/h 13.2mph /  21.2km/h 50% 0in /  0.0mm
15:11 40.3 °F /  4.6 °C 23 °F /  -5.0 °C 30.1in /  1018.2hPa East 10.1mph /  16.3km/h 13.2mph /  21.2km/h 50% 0in /  0.0mm
15:16 40.3 °F /  4.6 °C 23 °F /  -5.0 °C 30.1in /  1018.2hPa ENE 11mph /  17.7km/h 16.1mph /  25.9km/h 49% 0in /  0.0mm
15:21 40.3 °F /  4.6 °C 23 °F /  -5.0 °C 30.1in /  1018.2hPa ENE 5.4mph /  8.7km/h 16.1mph /  25.9km/h 50% 0in /  0.0mm
15:26 40.3 °F /  4.6 °C 23 °F /  -5.0 °C 30.1in /  1018.2hPa NE 10.7mph /  17.2km/h 14.5mph /  23.3km/h 50% 0in /  0.0mm
15:31 40.3 °F /  4.6 °C 23 °F /  -5.0 °C 30in /  1016.8hPa ENE 9.4mph /  15.1km/h 12.8mph /  20.6km/h 49% 0in /  0.0mm
15:36 40.3 °F /  4.6 °C 23 °F /  -5.0 °C 30in /  1016.8hPa NE 10.3mph /  16.6km/h 12.8mph /  20.6km/h 49% 0in /  0.0mm
15:41 40.6 °F /  4.8 °C 23 °F /  -5.0 °C 30in /  1016.8hPa East 4.3mph /  6.9km/h 12.8mph /  20.6km/h 50% 0in /  0.0mm
15:46 40.5 °F /  4.7 °C 23 °F /  -5.0 °C 30.1in /  1018.2hPa NE 14.3mph /  23.0km/h 14.8mph /  23.8km/h 48% 0in /  0.0mm
15:51 40.3 °F /  4.6 °C 23 °F /  -5.0 °C 30.1in /  1018.2hPa NE 17.2mph /  27.7km/h 17.4mph /  28.0km/h 48% 0in /  0.0mm
15:56 40.1 °F /  4.5 °C 23 °F /  -5.0 °C 30.1in /  1018.2hPa NE 11.4mph /  18.3km/h 17.4mph /  28.0km/h 48% 0in /  0.0mm
16:02 39.9 °F /  4.4 °C 21.2 °F /  -6.0 °C 30in /  1016.8hPa ENE 10.3mph /  16.6km/h 17.7mph /  28.5km/h 47% 0in /  0.0mm
16:07 39.9 °F /  4.4 °C 21.2 °F /  -6.0 °C 30in /  1016.8hPa NNE 10.7mph /  17.2km/h 17.7mph /  28.5km/h 48% 0in /  0.0mm
16:12 40.1 °F /  4.5 °C 23 °F /  -5.0 °C 30in /  1016.8hPa ENE 11.2mph /  18.0km/h 13mph /  20.9km/h 48% 0in /  0.0mm
16:17 39.9 °F /  4.4 °C 21.2 °F /  -6.0 °C 30in /  1016.8hPa ENE 10.7mph /  17.2km/h 13mph /  20.9km/h 48% 0in /  0.0mm
16:22 39.9 °F /  4.4 °C 21.2 °F /  -6.0 °C 30in /  1016.8hPa NE 11mph /  17.7km/h 14.5mph /  23.3km/h 47% 0in /  0.0mm
16:27 39.7 °F /  4.3 °C 21.2 °F /  -6.0 °C 30in /  1016.8hPa East 15.7mph /  25.3km/h 15.7mph /  25.3km/h 45% 0in /  0.0mm
16:32 39.6 °F /  4.2 °C 21.2 °F /  -6.0 °C 30in /  1016.8hPa NE 9.8mph /  15.8km/h 15.7mph /  25.3km/h 46% 0in /  0.0mm
16:37 39.4 °F /  4.1 °C 21.2 °F /  -6.0 °C 30in /  1016.8hPa NE 6.5mph /  10.5km/h 15.7mph /  25.3km/h 46% 0in /  0.0mm
16:42 39.4 °F /  4.1 °C 21.2 °F /  -6.0 °C 30in /  1016.8hPa NE 10.7mph /  17.2km/h 13.9mph /  22.4km/h 46% 0in /  0.0mm
16:47 39.2 °F /  4.0 °C 19.4 °F /  -7.0 °C 30in /  1016.8hPa ESE 10.1mph /  16.3km/h 13.9mph /  22.4km/h 45% 0in /  0.0mm
16:52 39 °F /  3.9 °C 21.2 °F /  -6.0 °C 30in /  1016.8hPa ENE 9.8mph /  15.8km/h 12.3mph /  19.8km/h 47% 0in /  0.0mm
16:57 39 °F /  3.9 °C 21.2 °F /  -6.0 °C 30in /  1016.8hPa East 7.6mph /  12.2km/h 11mph /  17.7km/h 47% 0in /  0.0mm
17:02 38.8 °F /  3.8 °C 21.2 °F /  -6.0 °C 30in /  1016.8hPa East 10.1mph /  16.3km/h 11mph /  17.7km/h 47% 0in /  0.0mm
17:07 38.7 °F /  3.7 °C 19.4 °F /  -7.0 °C 30in /  1016.8hPa NE 6.5mph /  10.5km/h 13.9mph /  22.4km/h 46% 0in /  0.0mm
17:12 38.5 °F /  3.6 °C 19.4 °F /  -7.0 °C 30in /  1016.8hPa ENE 11mph /  17.7km/h 14.1mph /  22.7km/h 46% 0in /  0.0mm
17:17 38.3 °F /  3.5 °C 19.4 °F /  -7.0 °C 30in /  1016.8hPa ENE 9.6mph /  15.4km/h 14.1mph /  22.7km/h 45% 0in /  0.0mm
17:22 38.1 °F /  3.4 °C 19.4 °F /  -7.0 °C 30in /  1016.8hPa ENE 6.3mph /  10.1km/h 12.3mph /  19.8km/h 45% 0in /  0.0mm
17:27 37.9 °F /  3.3 °C 19.4 °F /  -7.0 °C 30in /  1016.8hPa NE 7.8mph /  12.6km/h 13.4mph /  21.6km/h 45% 0in /  0.0mm
17:32 37.9 °F /  3.3 °C 19.4 °F /  -7.0 °C 30in /  1016.8hPa East 9.4mph /  15.1km/h 13.4mph /  21.6km/h 45% 0in /  0.0mm
17:37 37.6 °F /  3.1 °C 19.4 °F /  -7.0 °C 30in /  1016.8hPa NE 6.5mph /  10.5km/h 12.5mph /  20.1km/h 45% 0in /  0.0mm
17:42 37.4 °F /  3.0 °C 19.4 °F /  -7.0 °C 30in /  1016.8hPa East 5.4mph /  8.7km/h 12.3mph /  19.8km/h 46% 0in /  0.0mm
17:47 37.2 °F /  2.9 °C 19.4 °F /  -7.0 °C 30in /  1016.8hPa NE 8.1mph /  13.0km/h 12.3mph /  19.8km/h 46% 0in /  0.0mm
17:52 36.9 °F /  2.7 °C 19.4 °F /  -7.0 °C 30in /  1016.8hPa ENE 10.5mph /  16.9km/h 10.7mph /  17.2km/h 46% 0in /  0.0mm
17:57 36.7 °F /  2.6 °C 19.4 °F /  -7.0 °C 30in /  1016.8hPa East 7.6mph /  12.2km/h 12.5mph /  20.1km/h 46% 0in /  0.0mm
18:02 36.3 °F /  2.4 °C 19.4 °F /  -7.0 °C 30in /  1016.8hPa ENE 6mph /  9.7km/h 12.5mph /  20.1km/h 47% 0in /  0.0mm
18:07 36.1 °F /  2.3 °C 19.4 °F /  -7.0 °C 30in /  1016.8hPa East 8.7mph /  14.0km/h 10.5mph /  16.9km/h 47% 0in /  0.0mm
18:12 35.8 °F /  2.1 °C 17.6 °F /  -8.0 °C 30in /  1016.8hPa ENE 9.8mph /  15.8km/h 10.7mph /  17.2km/h 47% 0in /  0.0mm
18:17 35.6 °F /  2.0 °C 19.4 °F /  -7.0 °C 30in /  1016.8hPa ENE 6.9mph /  11.1km/h 10.7mph /  17.2km/h 48% 0in /  0.0mm
18:22 35.4 °F /  1.9 °C 19.4 °F /  -7.0 °C 30in /  1016.8hPa NE 7.8mph /  12.6km/h 10.1mph /  16.3km/h 49% 0in /  0.0mm
18:28 35.2 °F /  1.8 °C 17.6 °F /  -8.0 °C 30in /  1016.8hPa ENE 7.4mph /  11.9km/h 10.1mph /  16.3km/h 49% 0in /  0.0mm
18:33 35.1 °F /  1.7 °C 19.4 °F /  -7.0 °C 30in /  1016.8hPa NE 7.4mph /  11.9km/h 9.8mph /  15.8km/h 50% 0in /  0.0mm
18:38 35.1 °F /  1.7 °C 19.4 °F /  -7.0 °C 30in /  1016.8hPa ENE 6mph /  9.7km/h 10.5mph /  16.9km/h 50% 0in /  0.0mm
18:43 34.9 °F /  1.6 °C 19.4 °F /  -7.0 °C 30in /  1016.8hPa ENE 6.5mph /  10.5km/h 10.5mph /  16.9km/h 50% 0in /  0.0mm
18:48 34.9 °F /  1.6 °C 19.4 °F /  -7.0 °C 30.1in /  1018.2hPa East 8.1mph /  13.0km/h 9.8mph /  15.8km/h 50% 0in /  0.0mm
18:53 34.7 °F /  1.5 °C 19.4 °F /  -7.0 °C 30.1in /  1018.2hPa ENE 5.4mph /  8.7km/h 11mph /  17.7km/h 50% 0in /  0.0mm
18:58 34.5 °F /  1.4 °C 17.6 °F /  -8.0 °C 30.1in /  1018.2hPa NNE 7.4mph /  11.9km/h 11mph /  17.7km/h 50% 0in /  0.0mm
19:03 34.5 °F /  1.4 °C 17.6 °F /  -8.0 °C 30in /  1016.8hPa ENE 6.3mph /  10.1km/h 10.1mph /  16.3km/h 50% 0in /  0.0mm
19:08 34.3 °F /  1.3 °C 17.6 °F /  -8.0 °C 30in /  1016.8hPa ENE 4.9mph /  7.9km/h 9.8mph /  15.8km/h 50% 0in /  0.0mm
19:13 34.3 °F /  1.3 °C 19.4 °F /  -7.0 °C 30in /  1016.8hPa NE 7.4mph /  11.9km/h 10.3mph /  16.6km/h 51% 0in /  0.0mm
19:18 34.2 °F /  1.2 °C 19.4 °F /  -7.0 °C 30.1in /  1018.2hPa ENE 7.2mph /  11.6km/h 10.3mph /  16.6km/h 51% 0in /  0.0mm
19:23 34 °F /  1.1 °C 17.6 °F /  -8.0 °C 30.1in /  1018.2hPa ENE 4.9mph /  7.9km/h 8.1mph /  13.0km/h 51% 0in /  0.0mm
19:28 34 °F /  1.1 °C 19.4 °F /  -7.0 °C 30.1in /  1018.2hPa ENE 4mph /  6.4km/h 7.6mph /  12.2km/h 52% 0in /  0.0mm
19:33 33.8 °F /  1.0 °C 19.4 °F /  -7.0 °C 30.1in /  1018.2hPa ENE 4.3mph /  6.9km/h 7.2mph /  11.6km/h 52% 0in /  0.0mm
19:38 33.6 °F /  0.9 °C 19.4 °F /  -7.0 °C 30.1in /  1018.2hPa ENE 4.7mph /  7.6km/h 7.2mph /  11.6km/h 53% 0in /  0.0mm
19:43 33.3 °F /  0.7 °C 19.4 °F /  -7.0 °C 30.1in /  1018.2hPa ENE 3.4mph /  5.5km/h 7.2mph /  11.6km/h 53% 0in /  0.0mm
19:48 33.1 °F /  0.6 °C 19.4 °F /  -7.0 °C 30.1in /  1018.2hPa ENE 5.4mph /  8.7km/h 5.4mph /  8.7km/h 54% 0in /  0.0mm
19:53 33.1 °F /  0.6 °C 19.4 °F /  -7.0 °C 30.1in /  1018.2hPa ENE 4.9mph /  7.9km/h 7.2mph /  11.6km/h 54% 0in /  0.0mm
19:58 33.1 °F /  0.6 °C 19.4 °F /  -7.0 °C 30.1in /  1018.2hPa ENE 6.3mph /  10.1km/h 7.8mph /  12.6km/h 55% 0in /  0.0mm
20:03 32.9 °F /  0.5 °C 19.4 °F /  -7.0 °C 30.1in /  1018.2hPa ENE 5.8mph /  9.3km/h 7.8mph /  12.6km/h 55% 0in /  0.0mm
20:08 33.1 °F /  0.6 °C 19.4 °F /  -7.0 °C 30.1in /  1018.2hPa ENE 5.8mph /  9.3km/h 8.7mph /  14.0km/h 55% 0in /  0.0mm
20:13 33.1 °F /  0.6 °C 19.4 °F /  -7.0 °C 30.1in /  1018.2hPa ENE 6.5mph /  10.5km/h 8.7mph /  14.0km/h 55% 0in /  0.0mm
20:18 33.1 °F /  0.6 °C 19.4 °F /  -7.0 °C 30.1in /  1018.2hPa ENE 6mph /  9.7km/h 8.7mph /  14.0km/h 56% 0in /  0.0mm
20:23 33.1 °F /  0.6 °C 19.4 °F /  -7.0 °C 30.1in /  1018.2hPa ENE 6.3mph /  10.1km/h 8.7mph /  14.0km/h 56% 0in /  0.0mm
20:28 33.1 °F /  0.6 °C 19.4 °F /  -7.0 °C 30.1in /  1018.2hPa East 4mph /  6.4km/h 8.7mph /  14.0km/h 56% 0in /  0.0mm
20:33 32.9 °F /  0.5 °C 19.4 °F /  -7.0 °C 30.1in /  1018.2hPa NE 4mph /  6.4km/h 7.8mph /  12.6km/h 56% 0in /  0.0mm
20:38 33.1 °F /  0.6 °C 19.4 °F /  -7.0 °C 30.1in /  1018.2hPa East 5.4mph /  8.7km/h 7.8mph /  12.6km/h 56% 0in /  0.0mm
20:44 32.9 °F /  0.5 °C 19.4 °F /  -7.0 °C 30.1in /  1018.2hPa ENE 6.3mph /  10.1km/h 7.8mph /  12.6km/h 56% 0in /  0.0mm
20:49 32.9 °F /  0.5 °C 19.4 °F /  -7.0 °C 30.1in /  1018.2hPa ENE 5.8mph /  9.3km/h 8.5mph /  13.7km/h 56% 0in /  0.0mm
20:54 32.7 °F /  0.4 °C 19.4 °F /  -7.0 °C 30.1in /  1018.2hPa NE 6.3mph /  10.1km/h 8.5mph /  13.7km/h 57% 0in /  0.0mm
20:59 32.7 °F /  0.4 °C 19.4 °F /  -7.0 °C 30.1in /  1018.2hPa ENE 6.5mph /  10.5km/h 8.5mph /  13.7km/h 57% 0in /  0.0mm
21:04 32.5 °F /  0.3 °C 19.4 °F /  -7.0 °C 30.1in /  1018.2hPa NE 8.7mph /  14.0km/h 8.7mph /  14.0km/h 58% 0in /  0.0mm
21:09 32.5 °F /  0.3 °C 19.4 °F /  -7.0 °C 30.1in /  1018.2hPa NE 7.8mph /  12.6km/h 8.7mph /  14.0km/h 58% 0in /  0.0mm
21:14 32.5 °F /  0.3 °C 19.4 °F /  -7.0 °C 30.1in /  1018.2hPa NE 6.5mph /  10.5km/h 8.7mph /  14.0km/h 58% 0in /  0.0mm
21:19 32.4 °F /  0.2 °C 19.4 °F /  -7.0 °C 30.1in /  1018.2hPa ENE 7.6mph /  12.2km/h 8.5mph /  13.7km/h 58% 0in /  0.0mm
21:24 32.4 °F /  0.2 °C 19.4 °F /  -7.0 °C 30.1in /  1018.2hPa ENE 7.6mph /  12.2km/h 10.5mph /  16.9km/h 59% 0in /  0.0mm
21:29 32.5 °F /  0.3 °C 21.2 °F /  -6.0 °C 30.1in /  1018.2hPa ENE 7.2mph /  11.6km/h 10.5mph /  16.9km/h 59% 0in /  0.0mm
21:34 32.4 °F /  0.2 °C 21.2 °F /  -6.0 °C 30.1in /  1018.2hPa ENE 7.4mph /  11.9km/h 9.2mph /  14.8km/h 60% 0in /  0.0mm
21:39 32.2 °F /  0.1 °C 21.2 °F /  -6.0 °C 30.1in /  1018.2hPa ENE 7.8mph /  12.6km/h 10.1mph /  16.3km/h 60% 0in /  0.0mm
21:44 32.2 °F /  0.1 °C 21.2 °F /  -6.0 °C 30.1in /  1018.2hPa ENE 6mph /  9.7km/h 10.1mph /  16.3km/h 60% 0in /  0.0mm
21:49 32.2 °F /  0.1 °C 21.2 °F /  -6.0 °C 30.1in /  1018.2hPa ENE 7.6mph /  12.2km/h 9.6mph /  15.4km/h 60% 0in /  0.0mm
21:54 32 °F /  0.0 °C 19.4 °F /  -7.0 °C 30.1in /  1018.2hPa NE 7.8mph /  12.6km/h 9.6mph /  15.4km/h 61% 0in /  0.0mm
21:59 32 °F /  0.0 °C 19.4 °F /  -7.0 °C 30.1in /  1018.2hPa ENE 6mph /  9.7km/h 10.3mph /  16.6km/h 61% 0in /  0.0mm
22:04 32.2 °F /  0.1 °C 21.2 °F /  -6.0 °C 30.1in /  1018.2hPa NE 8.1mph /  13.0km/h 11mph /  17.7km/h 61% 0in /  0.0mm
22:09 32.2 °F /  0.1 °C 21.2 °F /  -6.0 °C 30.1in /  1018.2hPa ENE 7.2mph /  11.6km/h 11mph /  17.7km/h 61% 0in /  0.0mm
22:14 32.2 °F /  0.1 °C 21.2 °F /  -6.0 °C 30.1in /  1018.2hPa ENE 10.3mph /  16.6km/h 11mph /  17.7km/h 61% 0in /  0.0mm
22:19 32.2 °F /  0.1 °C 21.2 °F /  -6.0 °C 30.1in /  1018.2hPa ENE 8.1mph /  13.0km/h 10.3mph /  16.6km/h 60% 0in /  0.0mm
22:24 32.2 °F /  0.1 °C 21.2 °F /  -6.0 °C 30.1in /  1018.2hPa ENE 6.7mph /  10.8km/h 9.8mph /  15.8km/h 61% 0in /  0.0mm
22:29 32 °F /  0.0 °C 19.4 °F /  -7.0 °C 30.1in /  1018.2hPa ENE 8.7mph /  14.0km/h 10.1mph /  16.3km/h 61% 0in /  0.0mm
22:34 32 °F /  0.0 °C 19.4 °F /  -7.0 °C 30.1in /  1018.2hPa NE 7.6mph /  12.2km/h 10.1mph /  16.3km/h 61% 0in /  0.0mm
22:39 31.8 °F /  -0.1 °C 19.4 °F /  -7.0 °C 30.1in /  1018.2hPa ENE 7.8mph /  12.6km/h 9.8mph /  15.8km/h 62% 0in /  0.0mm
22:45 31.8 °F /  -0.1 °C 19.4 °F /  -7.0 °C 30.1in /  1018.2hPa ENE 7.6mph /  12.2km/h 9.8mph /  15.8km/h 62% 0in /  0.0mm
22:50 31.6 °F /  -0.2 °C 19.4 °F /  -7.0 °C 30.1in /  1018.2hPa East 7.8mph /  12.6km/h 10.1mph /  16.3km/h 62% 0in /  0.0mm
22:55 31.6 °F /  -0.2 °C 19.4 °F /  -7.0 °C 30.1in /  1018.2hPa ENE 7.6mph /  12.2km/h 11.9mph /  19.1km/h 62% 0in /  0.0mm
23:00 31.5 °F /  -0.3 °C 19.4 °F /  -7.0 °C 30in /  1016.8hPa NNE 4.7mph /  7.6km/h 11.9mph /  19.1km/h 62% 0in /  0.0mm
23:05 31.5 °F /  -0.3 °C 19.4 °F /  -7.0 °C 30in /  1016.8hPa NE 7.4mph /  11.9km/h 12.1mph /  19.5km/h 62% 0in /  0.0mm
23:10 31.6 °F /  -0.2 °C 19.4 °F /  -7.0 °C 30in /  1016.8hPa NE 6.3mph /  10.1km/h 12.1mph /  19.5km/h 61% 0in /  0.0mm
23:15 31.5 °F /  -0.3 °C 19.4 °F /  -7.0 °C 30.1in /  1018.2hPa ENE 6mph /  9.7km/h 11.2mph /  18.0km/h 62% 0in /  0.0mm
23:20 31.5 °F /  -0.3 °C 19.4 °F /  -7.0 °C 30.1in /  1018.2hPa ENE 8.5mph /  13.7km/h 8.7mph /  14.0km/h 62% 0in /  0.0mm
23:25 31.3 °F /  -0.4 °C 19.4 °F /  -7.0 °C 30.1in /  1018.2hPa ENE 8.1mph /  13.0km/h 8.5mph /  13.7km/h 62% 0in /  0.0mm
23:30 31.3 °F /  -0.4 °C 19.4 °F /  -7.0 °C 30.1in /  1018.2hPa ENE 7.4mph /  11.9km/h 10.5mph /  16.9km/h 62% 0in /  0.0mm
23:35 31.3 °F /  -0.4 °C 19.4 °F /  -7.0 °C 30.1in /  1018.2hPa ENE 8.5mph /  13.7km/h 10.5mph /  16.9km/h 62% 0in /  0.0mm
23:40 31.1 °F /  -0.5 °C 17.6 °F /  -8.0 °C 30.1in /  1018.2hPa ENE 6mph /  9.7km/h 9.8mph /  15.8km/h 62% 0in /  0.0mm
23:45 30.9 °F /  -0.6 °C 17.6 °F /  -8.0 °C 30.1in /  1018.2hPa NE 6mph /  9.7km/h 8.5mph /  13.7km/h 62% 0in /  0.0mm
23:50 30.7 °F /  -0.7 °C 19.4 °F /  -7.0 °C 30.1in /  1018.2hPa ENE 5.8mph /  9.3km/h 8.7mph /  14.0km/h 63% 0in /  0.0mm
23:55 30.7 °F /  -0.7 °C 19.4 °F /  -7.0 °C 30.1in /  1018.2hPa ENE 8.5mph /  13.7km/h 8.7mph /  14.0km/h 63% 0in /  0.0mm
Données Historique de Météo Turbie

Mise a jour : 20/06/2018 18:57:11
Généré par Cumulus 1.9.4 (1099)